sensor_id;sensor_type;location;lat;lon;timestamp;P1;durP1;ratioP1;P2;durP2;ratioP2
45764;SDS011;31474;45.332;10.230;2024-02-15T00:02:13;8.85;;;7.47;;
45764;SDS011;31474;45.332;10.230;2024-02-15T00:04:39;10.77;;;8.23;;
45764;SDS011;31474;45.332;10.230;2024-02-15T00:07:05;8.75;;;7.20;;
45764;SDS011;31474;45.332;10.230;2024-02-15T00:09:31;10.07;;;8.52;;
45764;SDS011;31474;45.332;10.230;2024-02-15T00:11:56;8.13;;;7.07;;
45764;SDS011;31474;45.332;10.230;2024-02-15T00:14:24;10.52;;;8.02;;
45764;SDS011;31474;45.332;10.230;2024-02-15T00:16:51;9.35;;;7.90;;
45764;SDS011;31474;45.332;10.230;2024-02-15T00:19:16;11.25;;;8.45;;
45764;SDS011;31474;45.332;10.230;2024-02-15T00:21:43;7.65;;;6.75;;
45764;SDS011;31474;45.332;10.230;2024-02-15T00:24:09;10.02;;;8.30;;
45764;SDS011;31474;45.332;10.230;2024-02-15T00:26:35;8.48;;;7.53;;
45764;SDS011;31474;45.332;10.230;2024-02-15T00:29:01;10.82;;;8.25;;
45764;SDS011;31474;45.332;10.230;2024-02-15T00:31:26;7.97;;;6.88;;
45764;SDS011;31474;45.332;10.230;2024-02-15T00:33:52;10.63;;;8.93;;
45764;SDS011;31474;45.332;10.230;2024-02-15T00:36:19;7.97;;;6.95;;
45764;SDS011;31474;45.332;10.230;2024-02-15T00:38:44;10.27;;;8.00;;
45764;SDS011;31474;45.332;10.230;2024-02-15T00:41:10;8.25;;;7.13;;
45764;SDS011;31474;45.332;10.230;2024-02-15T00:43:36;9.85;;;8.52;;
45764;SDS011;31474;45.332;10.230;2024-02-15T00:46:01;8.15;;;6.63;;
45764;SDS011;31474;45.332;10.230;2024-02-15T00:48:27;9.57;;;8.23;;
45764;SDS011;31474;45.332;10.230;2024-02-15T00:50:55;7.75;;;6.95;;
45764;SDS011;31474;45.332;10.230;2024-02-15T00:53:21;11.50;;;8.70;;
45764;SDS011;31474;45.332;10.230;2024-02-15T00:55:46;7.25;;;6.55;;
45764;SDS011;31474;45.332;10.230;2024-02-15T00:58:12;9.80;;;8.57;;
45764;SDS011;31474;45.332;10.230;2024-02-15T01:00:38;10.93;;;7.70;;
45764;SDS011;31474;45.332;10.230;2024-02-15T01:03:03;10.23;;;8.25;;
45764;SDS011;31474;45.332;10.230;2024-02-15T01:05:29;7.95;;;6.97;;
45764;SDS011;31474;45.332;10.230;2024-02-15T01:07:55;10.23;;;8.35;;
45764;SDS011;31474;45.332;10.230;2024-02-15T01:10:22;8.30;;;7.13;;
45764;SDS011;31474;45.332;10.230;2024-02-15T01:12:49;10.52;;;8.00;;
45764;SDS011;31474;45.332;10.230;2024-02-15T01:15:15;7.63;;;6.82;;
45764;SDS011;31474;45.332;10.230;2024-02-15T01:17:43;10.80;;;8.43;;
45764;SDS011;31474;45.332;10.230;2024-02-15T01:20:10;8.25;;;7.30;;
45764;SDS011;31474;45.332;10.230;2024-02-15T01:22:36;9.80;;;7.95;;
45764;SDS011;31474;45.332;10.230;2024-02-15T01:25:02;8.63;;;7.40;;
45764;SDS011;31474;45.332;10.230;2024-02-15T01:27:28;8.73;;;7.82;;
45764;SDS011;31474;45.332;10.230;2024-02-15T01:29:56;8.02;;;7.20;;
45764;SDS011;31474;45.332;10.230;2024-02-15T01:32:22;11.05;;;8.30;;
45764;SDS011;31474;45.332;10.230;2024-02-15T01:34:48;9.55;;;7.88;;
45764;SDS011;31474;45.332;10.230;2024-02-15T01:37:16;10.38;;;8.50;;
45764;SDS011;31474;45.332;10.230;2024-02-15T01:39:42;10.02;;;7.95;;
45764;SDS011;31474;45.332;10.230;2024-02-15T01:42:07;7.22;;;6.53;;
45764;SDS011;31474;45.332;10.230;2024-02-15T01:44:33;10.05;;;8.25;;
45764;SDS011;31474;45.332;10.230;2024-02-15T01:47:01;9.80;;;7.25;;
45764;SDS011;31474;45.332;10.230;2024-02-15T01:49:29;9.18;;;8.00;;
45764;SDS011;31474;45.332;10.230;2024-02-15T01:51:56;9.50;;;6.97;;
45764;SDS011;31474;45.332;10.230;2024-02-15T01:54:22;9.43;;;7.60;;
45764;SDS011;31474;45.332;10.230;2024-02-15T01:56:48;9.00;;;6.72;;
45764;SDS011;31474;45.332;10.230;2024-02-15T01:59:15;9.05;;;7.65;;
45764;SDS011;31474;45.332;10.230;2024-02-15T02:01:41;7.93;;;6.38;;
45764;SDS011;31474;45.332;10.230;2024-02-15T02:04:08;9.80;;;7.90;;
45764;SDS011;31474;45.332;10.230;2024-02-15T02:06:34;9.68;;;7.88;;
45764;SDS011;31474;45.332;10.230;2024-02-15T02:09:01;8.02;;;6.90;;
45764;SDS011;31474;45.332;10.230;2024-02-15T02:11:28;8.98;;;7.40;;
45764;SDS011;31474;45.332;10.230;2024-02-15T02:13:54;9.73;;;8.10;;
45764;SDS011;31474;45.332;10.230;2024-02-15T02:16:27;9.68;;;8.13;;
45764;SDS011;31474;45.332;10.230;2024-02-15T02:18:54;9.38;;;7.85;;
45764;SDS011;31474;45.332;10.230;2024-02-15T02:21:22;10.50;;;8.25;;
45764;SDS011;31474;45.332;10.230;2024-02-15T02:23:51;6.82;;;6.13;;
45764;SDS011;31474;45.332;10.230;2024-02-15T02:26:20;10.13;;;8.10;;
45764;SDS011;31474;45.332;10.230;2024-02-15T02:28:47;10.48;;;8.32;;
45764;SDS011;31474;45.332;10.230;2024-02-15T02:31:13;10.30;;;6.78;;
45764;SDS011;31474;45.332;10.230;2024-02-15T02:33:39;8.88;;;7.15;;
45764;SDS011;31474;45.332;10.230;2024-02-15T02:36:06;9.13;;;7.15;;
45764;SDS011;31474;45.332;10.230;2024-02-15T02:38:37;9.15;;;7.45;;
45764;SDS011;31474;45.332;10.230;2024-02-15T02:41:06;7.55;;;6.75;;
45764;SDS011;31474;45.332;10.230;2024-02-15T02:43:32;8.73;;;7.82;;
45764;SDS011;31474;45.332;10.230;2024-02-15T02:45:57;7.97;;;7.15;;
45764;SDS011;31474;45.332;10.230;2024-02-15T02:48:23;6.90;;;6.18;;
45764;SDS011;31474;45.332;10.230;2024-02-15T02:50:49;9.68;;;7.70;;
45764;SDS011;31474;45.332;10.230;2024-02-15T02:53:15;9.38;;;6.97;;
45764;SDS011;31474;45.332;10.230;2024-02-15T02:55:41;7.20;;;6.25;;
45764;SDS011;31474;45.332;10.230;2024-02-15T02:58:07;8.82;;;7.68;;
45764;SDS011;31474;45.332;10.230;2024-02-15T03:00:33;7.90;;;7.10;;
45764;SDS011;31474;45.332;10.230;2024-02-15T03:02:59;8.88;;;7.20;;
45764;SDS011;31474;45.332;10.230;2024-02-15T03:05:25;8.20;;;6.53;;
45764;SDS011;31474;45.332;10.230;2024-02-15T03:07:51;9.52;;;7.55;;
45764;SDS011;31474;45.332;10.230;2024-02-15T03:10:17;8.50;;;7.22;;
45764;SDS011;31474;45.332;10.230;2024-02-15T03:12:43;9.07;;;7.53;;
45764;SDS011;31474;45.332;10.230;2024-02-15T03:15:12;7.43;;;6.32;;
45764;SDS011;31474;45.332;10.230;2024-02-15T03:17:39;9.32;;;7.30;;
45764;SDS011;31474;45.332;10.230;2024-02-15T03:20:06;7.78;;;6.97;;
45764;SDS011;31474;45.332;10.230;2024-02-15T03:22:54;8.50;;;7.60;;
45764;SDS011;31474;45.332;10.230;2024-02-15T03:25:21;7.63;;;6.75;;
45764;SDS011;31474;45.332;10.230;2024-02-15T03:27:52;11.13;;;8.23;;
45764;SDS011;31474;45.332;10.230;2024-02-15T03:30:19;9.27;;;7.45;;
45764;SDS011;31474;45.332;10.230;2024-02-15T03:32:46;8.77;;;7.43;;
45764;SDS011;31474;45.332;10.230;2024-02-15T03:35:19;6.10;;;5.50;;
45764;SDS011;31474;45.332;10.230;2024-02-15T03:37:47;9.57;;;6.90;;
45764;SDS011;31474;45.332;10.230;2024-02-15T03:40:16;10.98;;;7.57;;
45764;SDS011;31474;45.332;10.230;2024-02-15T03:42:43;13.55;;;7.10;;
45764;SDS011;31474;45.332;10.230;2024-02-15T03:45:09;9.00;;;7.32;;
45764;SDS011;31474;45.332;10.230;2024-02-15T03:47:35;8.02;;;6.38;;
45764;SDS011;31474;45.332;10.230;2024-02-15T03:50:02;8.50;;;6.78;;
45764;SDS011;31474;45.332;10.230;2024-02-15T03:52:28;8.45;;;6.93;;
45764;SDS011;31474;45.332;10.230;2024-02-15T03:54:57;8.68;;;7.03;;
45764;SDS011;31474;45.332;10.230;2024-02-15T03:57:23;8.75;;;7.13;;
45764;SDS011;31474;45.332;10.230;2024-02-15T03:59:49;9.43;;;7.28;;
45764;SDS011;31474;45.332;10.230;2024-02-15T04:02:19;8.20;;;7.10;;
45764;SDS011;31474;45.332;10.230;2024-02-15T04:04:45;8.73;;;7.55;;
45764;SDS011;31474;45.332;10.230;2024-02-15T04:07:15;9.15;;;7.75;;
45764;SDS011;31474;45.332;10.230;2024-02-15T04:09:47;8.00;;;6.53;;
45764;SDS011;31474;45.332;10.230;2024-02-15T04:12:13;8.18;;;7.38;;
45764;SDS011;31474;45.332;10.230;2024-02-15T04:14:45;9.88;;;7.60;;
45764;SDS011;31474;45.332;10.230;2024-02-15T04:17:11;8.38;;;6.97;;
45764;SDS011;31474;45.332;10.230;2024-02-15T04:19:39;7.38;;;6.68;;
45764;SDS011;31474;45.332;10.230;2024-02-15T04:22:05;9.65;;;7.07;;
45764;SDS011;31474;45.332;10.230;2024-02-15T04:24:35;7.15;;;6.45;;
45764;SDS011;31474;45.332;10.230;2024-02-15T04:27:05;8.20;;;6.68;;
45764;SDS011;31474;45.332;10.230;2024-02-15T04:29:33;8.90;;;7.03;;
45764;SDS011;31474;45.332;10.230;2024-02-15T04:31:59;8.85;;;7.25;;
45764;SDS011;31474;45.332;10.230;2024-02-15T04:34:25;8.27;;;6.55;;
45764;SDS011;31474;45.332;10.230;2024-02-15T04:36:51;8.77;;;6.97;;
45764;SDS011;31474;45.332;10.230;2024-02-15T04:39:20;9.02;;;7.03;;
45764;SDS011;31474;45.332;10.230;2024-02-15T04:41:52;8.98;;;6.82;;
45764;SDS011;31474;45.332;10.230;2024-02-15T04:44:18;7.38;;;6.50;;
45764;SDS011;31474;45.332;10.230;2024-02-15T04:46:52;6.03;;;5.40;;
45764;SDS011;31474;45.332;10.230;2024-02-15T04:49:20;8.25;;;6.75;;
45764;SDS011;31474;45.332;10.230;2024-02-15T04:51:47;8.07;;;6.60;;
45764;SDS011;31474;45.332;10.230;2024-02-15T04:54:13;8.65;;;6.97;;
45764;SDS011;31474;45.332;10.230;2024-02-15T04:56:40;7.70;;;6.90;;
45764;SDS011;31474;45.332;10.230;2024-02-15T04:59:06;8.77;;;6.60;;
45764;SDS011;31474;45.332;10.230;2024-02-15T05:01:42;8.43;;;6.97;;
45764;SDS011;31474;45.332;10.230;2024-02-15T05:04:09;7.97;;;6.90;;
45764;SDS011;31474;45.332;10.230;2024-02-15T05:06:35;8.45;;;7.55;;
45764;SDS011;31474;45.332;10.230;2024-02-15T05:09:02;7.82;;;6.53;;
45764;SDS011;31474;45.332;10.230;2024-02-15T05:11:32;7.65;;;6.85;;
45764;SDS011;31474;45.332;10.230;2024-02-15T05:14:02;8.00;;;6.63;;
45764;SDS011;31474;45.332;10.230;2024-02-15T05:16:30;6.93;;;6.22;;
45764;SDS011;31474;45.332;10.230;2024-02-15T05:18:57;6.57;;;5.85;;
45764;SDS011;31474;45.332;10.230;2024-02-15T05:21:22;9.27;;;7.25;;
45764;SDS011;31474;45.332;10.230;2024-02-15T05:23:48;8.43;;;7.25;;
45764;SDS011;31474;45.332;10.230;2024-02-15T05:26:14;7.20;;;6.50;;
45764;SDS011;31474;45.332;10.230;2024-02-15T05:28:48;6.90;;;5.90;;
45764;SDS011;31474;45.332;10.230;2024-02-15T05:31:14;6.78;;;6.10;;
45764;SDS011;31474;45.332;10.230;2024-02-15T05:33:43;8.20;;;6.85;;
45764;SDS011;31474;45.332;10.230;2024-02-15T05:36:10;7.93;;;7.13;;
45764;SDS011;31474;45.332;10.230;2024-02-15T05:38:36;7.20;;;6.50;;
45764;SDS011;31474;45.332;10.230;2024-02-15T05:41:02;7.22;;;6.10;;
45764;SDS011;31474;45.332;10.230;2024-02-15T05:43:28;7.28;;;6.30;;
45764;SDS011;31474;45.332;10.230;2024-02-15T05:45:54;7.95;;;6.47;;
45764;SDS011;31474;45.332;10.230;2024-02-15T05:48:20;9.35;;;7.50;;
45764;SDS011;31474;45.332;10.230;2024-02-15T05:50:46;7.43;;;6.63;;
45764;SDS011;31474;45.332;10.230;2024-02-15T05:53:13;6.85;;;6.05;;
45764;SDS011;31474;45.332;10.230;2024-02-15T05:55:38;7.03;;;6.18;;
45764;SDS011;31474;45.332;10.230;2024-02-15T05:58:09;8.77;;;6.30;;
45764;SDS011;31474;45.332;10.230;2024-02-15T06:00:36;8.75;;;6.85;;
45764;SDS011;31474;45.332;10.230;2024-02-15T06:03:03;6.95;;;6.25;;
45764;SDS011;31474;45.332;10.230;2024-02-15T06:05:31;7.75;;;6.78;;
45764;SDS011;31474;45.332;10.230;2024-02-15T06:07:57;7.30;;;6.47;;
45764;SDS011;31474;45.332;10.230;2024-02-15T06:10:24;8.35;;;6.43;;
45764;SDS011;31474;45.332;10.230;2024-02-15T06:12:50;6.60;;;5.65;;
45764;SDS011;31474;45.332;10.230;2024-02-15T06:15:16;24.40;;;19.13;;
45764;SDS011;31474;45.332;10.230;2024-02-15T06:17:42;24.73;;;18.38;;
45764;SDS011;31474;45.332;10.230;2024-02-15T06:20:14;22.20;;;17.05;;
45764;SDS011;31474;45.332;10.230;2024-02-15T06:22:42;18.63;;;15.15;;
45764;SDS011;31474;45.332;10.230;2024-02-15T06:25:09;22.20;;;16.02;;
45764;SDS011;31474;45.332;10.230;2024-02-15T06:27:38;23.45;;;15.82;;
45764;SDS011;31474;45.332;10.230;2024-02-15T06:30:09;23.92;;;15.68;;
45764;SDS011;31474;45.332;10.230;2024-02-15T06:32:53;17.25;;;14.50;;
45764;SDS011;31474;45.332;10.230;2024-02-15T06:35:38;22.55;;;16.23;;
45764;SDS011;31474;45.332;10.230;2024-02-15T06:38:23;24.55;;;14.15;;
45764;SDS011;31474;45.332;10.230;2024-02-15T06:41:07;20.55;;;14.60;;
45764;SDS011;31474;45.332;10.230;2024-02-15T06:43:32;16.90;;;14.10;;
45764;SDS011;31474;45.332;10.230;2024-02-15T06:45:59;18.45;;;13.65;;
45764;SDS011;31474;45.332;10.230;2024-02-15T06:48:26;18.73;;;14.02;;
45764;SDS011;31474;45.332;10.230;2024-02-15T06:50:52;20.83;;;14.27;;
45764;SDS011;31474;45.332;10.230;2024-02-15T06:53:17;21.70;;;13.55;;
45764;SDS011;31474;45.332;10.230;2024-02-15T06:55:45;19.73;;;14.30;;
45764;SDS011;31474;45.332;10.230;2024-02-15T06:58:14;17.58;;;13.73;;
45764;SDS011;31474;45.332;10.230;2024-02-15T07:00:41;22.45;;;14.07;;
45764;SDS011;31474;45.332;10.230;2024-02-15T07:03:07;18.38;;;13.23;;
45764;SDS011;31474;45.332;10.230;2024-02-15T07:05:34;15.63;;;12.45;;
45764;SDS011;31474;45.332;10.230;2024-02-15T07:08:00;16.20;;;12.55;;
45764;SDS011;31474;45.332;10.230;2024-02-15T07:10:26;14.30;;;12.10;;
45764;SDS011;31474;45.332;10.230;2024-02-15T07:12:52;17.73;;;13.38;;
45764;SDS011;31474;45.332;10.230;2024-02-15T07:15:17;14.70;;;12.20;;
45764;SDS011;31474;45.332;10.230;2024-02-15T07:17:43;15.85;;;12.63;;
45764;SDS011;31474;45.332;10.230;2024-02-15T07:20:11;15.40;;;12.45;;
45764;SDS011;31474;45.332;10.230;2024-02-15T07:22:42;18.48;;;11.98;;
45764;SDS011;31474;45.332;10.230;2024-02-15T07:25:10;14.75;;;12.60;;
45764;SDS011;31474;45.332;10.230;2024-02-15T07:27:36;15.07;;;12.48;;
45764;SDS011;31474;45.332;10.230;2024-02-15T07:30:02;17.05;;;11.93;;
45764;SDS011;31474;45.332;10.230;2024-02-15T07:32:29;13.88;;;11.32;;
45764;SDS011;31474;45.332;10.230;2024-02-15T07:34:56;15.90;;;12.27;;
45764;SDS011;31474;45.332;10.230;2024-02-15T07:37:22;14.65;;;11.52;;
45764;SDS011;31474;45.332;10.230;2024-02-15T07:39:51;14.90;;;11.45;;
45764;SDS011;31474;45.332;10.230;2024-02-15T07:42:17;13.55;;;12.15;;
45764;SDS011;31474;45.332;10.230;2024-02-15T07:44:43;14.70;;;11.82;;
45764;SDS011;31474;45.332;10.230;2024-02-15T07:47:09;15.38;;;11.43;;
45764;SDS011;31474;45.332;10.230;2024-02-15T07:49:35;16.02;;;11.95;;
45764;SDS011;31474;45.332;10.230;2024-02-15T07:52:01;14.18;;;10.82;;
45764;SDS011;31474;45.332;10.230;2024-02-15T07:54:29;13.45;;;11.25;;
45764;SDS011;31474;45.332;10.230;2024-02-15T07:56:56;14.80;;;12.10;;
45764;SDS011;31474;45.332;10.230;2024-02-15T07:59:23;13.13;;;11.73;;
45764;SDS011;31474;45.332;10.230;2024-02-15T08:01:49;14.68;;;11.80;;
45764;SDS011;31474;45.332;10.230;2024-02-15T08:04:18;12.63;;;11.30;;
45764;SDS011;31474;45.332;10.230;2024-02-15T08:06:44;12.93;;;11.07;;
45764;SDS011;31474;45.332;10.230;2024-02-15T08:09:10;15.15;;;11.63;;
45764;SDS011;31474;45.332;10.230;2024-02-15T08:11:39;12.15;;;10.90;;
45764;SDS011;31474;45.332;10.230;2024-02-15T08:14:05;12.60;;;10.90;;
45764;SDS011;31474;45.332;10.230;2024-02-15T08:16:33;13.27;;;11.45;;
45764;SDS011;31474;45.332;10.230;2024-02-15T08:18:59;11.73;;;10.23;;
45764;SDS011;31474;45.332;10.230;2024-02-15T08:23:58;13.38;;;10.60;;
45764;SDS011;31474;45.332;10.230;2024-02-15T08:26:23;12.98;;;10.75;;
45764;SDS011;31474;45.332;10.230;2024-02-15T08:28:49;13.40;;;11.52;;
45764;SDS011;31474;45.332;10.230;2024-02-15T08:31:15;14.40;;;11.02;;
45764;SDS011;31474;45.332;10.230;2024-02-15T08:33:44;13.70;;;10.82;;
45764;SDS011;31474;45.332;10.230;2024-02-15T08:36:11;15.20;;;11.32;;
45764;SDS011;31474;45.332;10.230;2024-02-15T08:38:38;13.80;;;10.27;;
45764;SDS011;31474;45.332;10.230;2024-02-15T08:41:04;11.38;;;10.18;;
45764;SDS011;31474;45.332;10.230;2024-02-15T08:43:32;12.65;;;11.02;;
45764;SDS011;31474;45.332;10.230;2024-02-15T08:45:58;11.98;;;10.65;;
45764;SDS011;31474;45.332;10.230;2024-02-15T08:48:24;12.55;;;10.20;;
45764;SDS011;31474;45.332;10.230;2024-02-15T08:50:50;12.68;;;9.95;;
45764;SDS011;31474;45.332;10.230;2024-02-15T08:53:16;12.50;;;10.68;;
45764;SDS011;31474;45.332;10.230;2024-02-15T08:55:44;11.98;;;10.45;;
45764;SDS011;31474;45.332;10.230;2024-02-15T08:58:10;12.52;;;10.02;;
45764;SDS011;31474;45.332;10.230;2024-02-15T09:00:36;16.55;;;10.70;;
45764;SDS011;31474;45.332;10.230;2024-02-15T09:03:06;12.93;;;10.65;;
45764;SDS011;31474;45.332;10.230;2024-02-15T09:05:32;14.95;;;10.15;;
45764;SDS011;31474;45.332;10.230;2024-02-15T09:07:57;11.60;;;10.40;;
45764;SDS011;31474;45.332;10.230;2024-02-15T09:10:23;14.32;;;11.23;;
45764;SDS011;31474;45.332;10.230;2024-02-15T09:12:49;12.88;;;10.20;;
45764;SDS011;31474;45.332;10.230;2024-02-15T09:15:15;13.00;;;10.80;;
45764;SDS011;31474;45.332;10.230;2024-02-15T09:17:41;14.25;;;10.63;;
45764;SDS011;31474;45.332;10.230;2024-02-15T09:20:09;11.75;;;9.52;;
45764;SDS011;31474;45.332;10.230;2024-02-15T09:22:42;17.15;;;10.90;;
45764;SDS011;31474;45.332;10.230;2024-02-15T09:25:19;14.32;;;9.57;;
45764;SDS011;31474;45.332;10.230;2024-02-15T09:27:48;12.02;;;9.40;;
45764;SDS011;31474;45.332;10.230;2024-02-15T09:30:14;12.73;;;10.57;;
45764;SDS011;31474;45.332;10.230;2024-02-15T09:32:43;12.00;;;9.77;;
45764;SDS011;31474;45.332;10.230;2024-02-15T09:35:10;10.65;;;9.20;;
45764;SDS011;31474;45.332;10.230;2024-02-15T09:37:42;11.23;;;9.23;;
45764;SDS011;31474;45.332;10.230;2024-02-15T09:40:12;9.68;;;8.68;;
45764;SDS011;31474;45.332;10.230;2024-02-15T09:42:40;16.75;;;10.30;;
45764;SDS011;31474;45.332;10.230;2024-02-15T09:45:07;12.15;;;9.25;;
45764;SDS011;31474;45.332;10.230;2024-02-15T09:47:38;13.48;;;9.32;;
45764;SDS011;31474;45.332;10.230;2024-02-15T09:50:07;12.18;;;9.85;;
45764;SDS011;31474;45.332;10.230;2024-02-15T09:52:43;10.27;;;9.23;;
45764;SDS011;31474;45.332;10.230;2024-02-15T09:55:10;10.48;;;8.68;;
45764;SDS011;31474;45.332;10.230;2024-02-15T09:57:40;9.57;;;8.68;;
45764;SDS011;31474;45.332;10.230;2024-02-15T10:00:08;11.60;;;9.07;;
45764;SDS011;31474;45.332;10.230;2024-02-15T10:02:38;10.15;;;8.80;;
45764;SDS011;31474;45.332;10.230;2024-02-15T10:05:05;10.27;;;9.25;;
45764;SDS011;31474;45.332;10.230;2024-02-15T10:07:36;10.27;;;9.18;;
45764;SDS011;31474;45.332;10.230;2024-02-15T10:10:14;10.30;;;8.73;;
45764;SDS011;31474;45.332;10.230;2024-02-15T10:12:44;12.18;;;9.02;;
45764;SDS011;31474;45.332;10.230;2024-02-15T10:15:26;11.23;;;9.13;;
45764;SDS011;31474;45.332;10.230;2024-02-15T10:17:56;9.30;;;7.65;;
45764;SDS011;31474;45.332;10.230;2024-02-15T10:20:26;10.40;;;8.57;;
45764;SDS011;31474;45.332;10.230;2024-02-15T10:23:13;9.57;;;8.50;;
45764;SDS011;31474;45.332;10.230;2024-02-15T10:25:43;9.40;;;8.20;;
45764;SDS011;31474;45.332;10.230;2024-02-15T10:28:12;9.73;;;8.73;;
45764;SDS011;31474;45.332;10.230;2024-02-15T10:30:41;11.05;;;8.43;;
45764;SDS011;31474;45.332;10.230;2024-02-15T10:33:08;10.27;;;9.23;;
45764;SDS011;31474;45.332;10.230;2024-02-15T10:35:35;9.45;;;8.32;;
45764;SDS011;31474;45.332;10.230;2024-02-15T10:38:10;9.82;;;8.82;;
45764;SDS011;31474;45.332;10.230;2024-02-15T10:40:38;11.38;;;8.80;;
45764;SDS011;31474;45.332;10.230;2024-02-15T10:43:08;11.63;;;9.63;;
45764;SDS011;31474;45.332;10.230;2024-02-15T10:45:38;10.02;;;8.98;;
45764;SDS011;31474;45.332;10.230;2024-02-15T10:48:07;10.35;;;8.70;;
45764;SDS011;31474;45.332;10.230;2024-02-15T10:50:33;10.15;;;8.05;;
45764;SDS011;31474;45.332;10.230;2024-02-15T10:52:59;9.85;;;8.85;;
45764;SDS011;31474;45.332;10.230;2024-02-15T10:55:40;7.53;;;6.70;;
45764;SDS011;31474;45.332;10.230;2024-02-15T10:58:16;9.40;;;7.88;;
45764;SDS011;31474;45.332;10.230;2024-02-15T11:00:44;10.43;;;8.63;;
45764;SDS011;31474;45.332;10.230;2024-02-15T11:03:14;9.18;;;8.25;;
45764;SDS011;31474;45.332;10.230;2024-02-15T11:05:55;11.05;;;8.85;;
45764;SDS011;31474;45.332;10.230;2024-02-15T11:08:25;9.23;;;8.30;;
45764;SDS011;31474;45.332;10.230;2024-02-15T11:10:52;9.43;;;7.95;;
45764;SDS011;31474;45.332;10.230;2024-02-15T11:13:23;9.07;;;8.07;;
45764;SDS011;31474;45.332;10.230;2024-02-15T11:15:49;8.65;;;7.80;;
45764;SDS011;31474;45.332;10.230;2024-02-15T11:21:13;9.35;;;8.32;;
45764;SDS011;31474;45.332;10.230;2024-02-15T11:23:43;9.13;;;7.90;;
45764;SDS011;31474;45.332;10.230;2024-02-15T11:26:10;8.50;;;7.60;;
45764;SDS011;31474;45.332;10.230;2024-02-15T11:40:26;8.82;;;7.20;;
45764;SDS011;31474;45.332;10.230;2024-02-15T11:42:58;9.98;;;7.55;;
45764;SDS011;31474;45.332;10.230;2024-02-15T11:45:25;8.32;;;7.20;;
45764;SDS011;31474;45.332;10.230;2024-02-15T11:47:52;10.30;;;8.35;;
45764;SDS011;31474;45.332;10.230;2024-02-15T11:50:20;9.13;;;7.88;;
45764;SDS011;31474;45.332;10.230;2024-02-15T11:52:47;9.50;;;7.68;;
45764;SDS011;31474;45.332;10.230;2024-02-15T11:55:22;31.88;;;26.60;;
45764;SDS011;31474;45.332;10.230;2024-02-15T11:57:57;28.30;;;25.20;;
45764;SDS011;31474;45.332;10.230;2024-02-15T12:00:37;31.48;;;25.05;;
45764;SDS011;31474;45.332;10.230;2024-02-15T12:03:22;32.88;;;27.23;;
45764;SDS011;31474;45.332;10.230;2024-02-15T12:06:07;29.95;;;26.45;;
45764;SDS011;31474;45.332;10.230;2024-02-15T12:08:53;24.45;;;19.05;;
45764;SDS011;31474;45.332;10.230;2024-02-15T12:11:38;23.95;;;19.73;;
45764;SDS011;31474;45.332;10.230;2024-02-15T12:14:22;22.73;;;18.90;;
45764;SDS011;31474;45.332;10.230;2024-02-15T12:17:07;20.80;;;16.45;;
45764;SDS011;31474;45.332;10.230;2024-02-15T12:19:53;20.65;;;17.38;;
45764;SDS011;31474;45.332;10.230;2024-02-15T12:24:53;22.52;;;16.30;;
45764;SDS011;31474;45.332;10.230;2024-02-15T12:29:55;17.02;;;14.20;;
45764;SDS011;31474;45.332;10.230;2024-02-15T12:32:23;19.40;;;15.40;;
45764;SDS011;31474;45.332;10.230;2024-02-15T12:34:53;18.00;;;15.00;;
45764;SDS011;31474;45.332;10.230;2024-02-15T12:37:35;17.40;;;14.83;;
45764;SDS011;31474;45.332;10.230;2024-02-15T12:40:09;17.20;;;14.63;;
45764;SDS011;31474;45.332;10.230;2024-02-15T12:42:45;18.52;;;15.65;;
45764;SDS011;31474;45.332;10.230;2024-02-15T12:45:21;18.70;;;15.32;;
45764;SDS011;31474;45.332;10.230;2024-02-15T12:47:48;16.58;;;14.57;;
45764;SDS011;31474;45.332;10.230;2024-02-15T12:50:18;17.38;;;14.60;;
45764;SDS011;31474;45.332;10.230;2024-02-15T12:52:46;18.25;;;15.30;;
45764;SDS011;31474;45.332;10.230;2024-02-15T12:55:18;17.77;;;15.00;;
45764;SDS011;31474;45.332;10.230;2024-02-15T12:57:51;17.23;;;15.05;;
45764;SDS011;31474;45.332;10.230;2024-02-15T13:00:22;16.88;;;14.65;;
45764;SDS011;31474;45.332;10.230;2024-02-15T13:02:56;17.88;;;14.80;;
45764;SDS011;31474;45.332;10.230;2024-02-15T13:05:24;17.63;;;14.48;;
45764;SDS011;31474;45.332;10.230;2024-02-15T13:07:51;16.75;;;13.88;;
45764;SDS011;31474;45.332;10.230;2024-02-15T13:10:20;19.30;;;15.15;;
45764;SDS011;31474;45.332;10.230;2024-02-15T13:12:46;18.85;;;15.10;;
45764;SDS011;31474;45.332;10.230;2024-02-15T13:15:13;19.98;;;15.65;;
45764;SDS011;31474;45.332;10.230;2024-02-15T13:17:43;18.60;;;15.15;;
45764;SDS011;31474;45.332;10.230;2024-02-15T13:20:10;18.98;;;14.38;;
45764;SDS011;31474;45.332;10.230;2024-02-15T13:22:38;18.02;;;15.20;;
45764;SDS011;31474;45.332;10.230;2024-02-15T13:25:08;19.25;;;14.80;;
45764;SDS011;31474;45.332;10.230;2024-02-15T13:27:34;17.65;;;15.57;;
45764;SDS011;31474;45.332;10.230;2024-02-15T13:30:03;17.27;;;15.32;;
45764;SDS011;31474;45.332;10.230;2024-02-15T13:32:33;17.80;;;15.75;;
45764;SDS011;31474;45.332;10.230;2024-02-15T13:35:00;18.80;;;15.48;;
45764;SDS011;31474;45.332;10.230;2024-02-15T13:37:32;19.15;;;14.90;;
45764;SDS011;31474;45.332;10.230;2024-02-15T13:39:58;17.17;;;14.98;;
45764;SDS011;31474;45.332;10.230;2024-02-15T13:42:24;19.15;;;14.80;;
45764;SDS011;31474;45.332;10.230;2024-02-15T13:44:49;19.25;;;15.68;;
45764;SDS011;31474;45.332;10.230;2024-02-15T13:47:15;18.85;;;14.98;;
45764;SDS011;31474;45.332;10.230;2024-02-15T13:49:41;16.83;;;14.35;;
45764;SDS011;31474;45.332;10.230;2024-02-15T13:52:08;18.23;;;15.18;;
45764;SDS011;31474;45.332;10.230;2024-02-15T13:54:36;17.77;;;13.57;;
45764;SDS011;31474;45.332;10.230;2024-02-15T13:57:02;17.00;;;14.55;;
45764;SDS011;31474;45.332;10.230;2024-02-15T13:59:28;15.50;;;13.68;;
45764;SDS011;31474;45.332;10.230;2024-02-15T14:01:54;16.63;;;14.82;;
45764;SDS011;31474;45.332;10.230;2024-02-15T14:04:20;15.95;;;14.02;;
45764;SDS011;31474;45.332;10.230;2024-02-15T14:06:47;17.15;;;13.52;;
45764;SDS011;31474;45.332;10.230;2024-02-15T14:09:13;16.08;;;13.55;;
45764;SDS011;31474;45.332;10.230;2024-02-15T14:11:39;17.90;;;14.48;;
45764;SDS011;31474;45.332;10.230;2024-02-15T14:14:05;16.35;;;13.15;;
45764;SDS011;31474;45.332;10.230;2024-02-15T14:16:31;15.55;;;12.80;;
45764;SDS011;31474;45.332;10.230;2024-02-15T14:18:58;17.67;;;14.30;;
45764;SDS011;31474;45.332;10.230;2024-02-15T14:21:24;16.77;;;14.10;;
45764;SDS011;31474;45.332;10.230;2024-02-15T14:23:50;15.98;;;13.20;;
45764;SDS011;31474;45.332;10.230;2024-02-15T14:26:16;19.15;;;12.65;;
45764;SDS011;31474;45.332;10.230;2024-02-15T14:28:42;17.08;;;14.70;;
45764;SDS011;31474;45.332;10.230;2024-02-15T14:31:10;16.38;;;12.55;;
45764;SDS011;31474;45.332;10.230;2024-02-15T14:33:55;15.73;;;12.63;;
45764;SDS011;31474;45.332;10.230;2024-02-15T14:36:21;13.20;;;11.88;;
45764;SDS011;31474;45.332;10.230;2024-02-15T14:38:46;13.68;;;12.23;;
45764;SDS011;31474;45.332;10.230;2024-02-15T14:41:12;14.25;;;11.93;;
45764;SDS011;31474;45.332;10.230;2024-02-15T14:43:38;14.95;;;12.25;;
45764;SDS011;31474;45.332;10.230;2024-02-15T14:46:04;13.27;;;11.35;;
45764;SDS011;31474;45.332;10.230;2024-02-15T14:48:32;16.58;;;12.00;;
45764;SDS011;31474;45.332;10.230;2024-02-15T14:50:59;15.25;;;12.88;;